Time;durP1;ratioP1;P1;durP2;ratioP2;P2;SDS_P1;SDS_P2;PMS_P1;PMS_P2;Temp;Humidity;BMP_temperature;BMP_pressure;BME280_temperature;BME280_humidity;BME280_pressure;Samples;Min_cycle;Max_cycle;Signal;HPM_P1;HPM_P2
2023/01/02 00:00:10;0.00;0.00;0.62;0.00;0.00;0.62;1.80;1.30;;;26.20;28.70;;;;;;2255965;61;20428;-65
2023/01/02 00:02:58;0.00;0.00;0.62;0.00;0.00;0.62;2.30;1.70;;;26.20;28.70;;;;;;2254657;61;20922;-65
2023/01/02 00:05:43;0.00;0.00;0.62;0.00;0.00;0.62;1.90;1.30;;;26.20;28.70;;;;;;2260917;61;20413;-65
2023/01/02 00:08:28;0.00;0.00;0.62;0.00;0.00;0.62;1.63;1.10;;;26.20;28.70;;;;;;2255617;61;20416;-65
2023/01/02 00:11:13;0.00;0.00;0.62;0.00;0.00;0.62;1.70;1.07;;;26.20;28.70;;;;;;2255824;61;20429;-65
2023/01/02 00:13:58;0.00;0.00;0.62;0.00;0.00;0.62;1.60;1.00;;;26.20;28.70;;;;;;2255541;61;20373;-66
2023/01/02 00:16:44;0.00;0.00;0.62;0.00;0.00;0.62;2.07;1.13;;;26.20;28.70;;;;;;2254904;61;20389;-65
2023/01/02 00:19:29;0.00;0.00;0.62;0.00;0.00;0.62;2.30;1.50;;;26.20;28.70;;;;;;2255626;61;20366;-66
2023/01/02 00:22:13;0.00;0.00;0.62;0.00;0.00;0.62;3.00;1.20;;;26.20;28.80;;;;;;2265927;61;20373;-64
2023/01/02 00:24:58;0.00;0.00;0.62;0.00;0.00;0.62;2.17;1.30;;;26.20;28.70;;;;;;2254466;61;20784;-66
2023/01/02 00:27:43;0.00;0.00;0.62;0.00;0.00;0.62;2.17;1.43;;;26.20;28.70;;;;;;2255833;61;20388;-66
2023/01/02 00:30:29;0.00;0.00;0.62;0.00;0.00;0.62;2.00;1.40;;;26.20;28.70;;;;;;2255699;61;20386;-60
2023/01/02 00:33:15;0.00;0.00;0.62;0.00;0.00;0.62;2.17;1.27;;;26.20;28.60;;;;;;2255503;61;20446;-61
2023/01/02 00:36:04;0.00;0.00;0.62;0.00;0.00;0.62;2.70;1.70;;;26.20;28.70;;;;;;2255476;61;20390;-62
2023/01/02 00:38:52;0.00;0.00;0.62;0.00;0.00;0.62;3.67;1.77;;;26.20;28.70;;;;;;2254154;61;20409;-61
2023/01/02 00:41:37;0.00;0.00;0.62;0.00;0.00;0.62;1.90;1.37;;;26.20;28.70;;;;;;2255663;61;20350;-62
2023/01/02 00:44:22;0.00;0.00;0.62;0.00;0.00;0.62;2.60;1.90;;;26.10;28.60;;;;;;2255157;61;20422;-61
2023/01/02 00:47:07;0.00;0.00;0.62;0.00;0.00;0.62;2.30;1.43;;;26.20;28.70;;;;;;2254220;61;20385;-62
2023/01/02 00:49:53;0.00;0.00;0.62;0.00;0.00;0.62;2.40;1.57;;;26.20;28.70;;;;;;2255140;61;20404;-62
2023/01/02 00:52:38;0.00;0.00;0.62;0.00;0.00;0.62;2.80;1.60;;;26.20;28.70;;;;;;2254987;61;20393;-63
2023/01/02 00:55:23;0.00;0.00;0.62;0.00;0.00;0.62;2.10;1.50;;;26.10;28.60;;;;;;2255436;61;20381;-62
2023/01/02 00:58:08;0.00;0.00;0.62;0.00;0.00;0.62;2.73;1.73;;;26.10;28.60;;;;;;2255585;61;20362;-62
2023/01/02 01:00:52;0.00;0.00;0.62;0.00;0.00;0.62;2.47;1.40;;;26.10;28.60;;;;;;2260098;61;20382;-63
2023/01/02 01:03:37;0.00;0.00;0.62;0.00;0.00;0.62;3.07;2.17;;;26.10;28.60;;;;;;2255389;61;20366;-62
2023/01/02 01:06:23;0.00;0.00;0.62;0.00;0.00;0.62;2.73;1.97;;;26.00;28.50;;;;;;2255712;61;20814;-63
2023/01/02 01:09:09;0.00;0.00;0.62;0.00;0.00;0.62;2.63;2.20;;;26.10;28.60;;;;;;2254476;61;20367;-64
2023/01/02 01:11:53;0.00;0.00;0.62;0.00;0.00;0.62;3.20;1.50;;;26.00;28.50;;;;;;2255787;61;20481;-63
2023/01/02 01:14:38;0.00;0.00;0.62;0.00;0.00;0.62;2.40;1.80;;;26.00;28.50;;;;;;2255481;61;20930;-63
2023/01/02 01:17:23;0.00;0.00;0.62;0.00;0.00;0.62;2.77;1.93;;;26.00;28.50;;;;;;2254250;61;20393;-63
2023/01/02 01:20:11;0.00;0.00;0.62;0.00;0.00;0.62;2.43;1.37;;;26.00;28.50;;;;;;2255731;61;20457;-63
2023/01/02 01:22:57;0.00;0.00;0.62;0.00;0.00;0.62;3.43;1.70;;;26.00;28.60;;;;;;2254273;61;20409;-63
2023/01/02 01:25:42;0.00;0.00;0.62;0.00;0.00;0.62;2.27;1.60;;;26.00;28.60;;;;;;2255619;61;20929;-63
2023/01/02 01:28:26;0.00;0.00;0.62;0.00;0.00;0.62;2.37;1.73;;;26.00;28.50;;;;;;2255866;61;20412;-63
2023/01/02 01:31:14;0.00;0.00;0.62;0.00;0.00;0.62;2.13;1.50;;;25.90;28.50;;;;;;2259459;61;20390;-63
2023/01/02 01:33:59;0.00;0.00;0.62;0.00;0.00;0.62;3.87;2.17;;;25.90;28.50;;;;;;2255522;61;20474;-64
2023/01/02 01:36:43;0.00;0.00;0.62;0.00;0.00;0.62;2.43;1.53;;;25.90;28.50;;;;;;2254676;61;20357;-63
2023/01/02 01:39:29;0.00;0.00;0.62;0.00;0.00;0.62;2.50;1.80;;;25.90;28.50;;;;;;2255592;61;20425;-63
2023/01/02 01:42:15;0.00;0.00;0.62;0.00;0.00;0.62;4.03;2.10;;;25.80;28.30;;;;;;2256262;61;20358;-64
2023/01/02 01:45:00;0.00;0.00;0.62;0.00;0.00;0.62;2.67;2.10;;;25.80;28.30;;;;;;2255175;61;20377;-64
2023/01/02 01:47:50;0.00;0.00;0.62;0.00;0.00;0.62;3.67;2.10;;;25.80;28.30;;;;;;2256298;61;20488;-63
2023/01/02 01:50:35;0.00;0.00;0.62;0.00;0.00;0.62;3.90;2.00;;;25.70;28.30;;;;;;2256136;61;20409;-63
2023/01/02 01:53:22;0.00;0.00;0.62;0.00;0.00;0.62;3.23;2.27;;;25.70;28.30;;;;;;2254482;61;20416;-62
2023/01/02 01:56:10;0.00;0.00;0.62;0.00;0.00;0.62;3.37;2.00;;;25.70;28.30;;;;;;2255768;61;20429;-63
2023/01/02 01:58:55;0.00;0.00;0.62;0.00;0.00;0.62;2.60;1.90;;;25.60;28.30;;;;;;2255722;61;20366;-63
2023/01/02 02:01:41;0.00;0.00;0.62;0.00;0.00;0.62;3.47;1.90;;;25.60;28.30;;;;;;2255359;61;20389;-63
2023/01/02 02:04:30;0.00;0.00;0.62;0.00;0.00;0.62;3.13;1.97;;;25.60;28.30;;;;;;2256142;61;20373;-64
2023/01/02 02:07:16;0.00;0.00;0.62;0.00;0.00;0.62;3.57;2.03;;;25.60;28.30;;;;;;2255173;61;20708;-63
2023/01/02 02:10:05;0.00;0.00;0.62;0.00;0.00;0.62;3.00;2.20;;;25.60;28.80;;;;;;2256133;61;21113;-63
2023/01/02 02:12:51;0.00;0.00;0.62;0.00;0.00;0.62;2.87;2.10;;;25.50;28.20;;;;;;2256089;61;20385;-64
2023/01/02 02:15:46;0.00;0.00;0.62;0.00;0.00;0.62;2.70;2.03;;;25.50;28.30;;;;;;2255151;61;20385;-64
2023/01/02 02:18:48;0.00;0.00;0.62;0.00;0.00;0.62;3.10;1.90;;;25.50;28.30;;;;;;2256097;61;20454;-63
2023/01/02 02:21:55;0.00;0.00;0.62;0.00;0.00;0.62;3.87;2.60;;;25.50;28.30;;;;;;2256075;61;20354;-63
2023/01/02 02:25:21;0.00;0.00;0.62;0.00;0.00;0.62;2.30;1.70;;;25.50;28.40;;;;;;2255811;61;20462;-63
2023/01/02 02:28:35;0.00;0.00;0.62;0.00;0.00;0.62;2.50;1.90;;;25.50;28.40;;;;;;2255988;61;20417;-64
2023/01/02 02:31:30;0.00;0.00;0.62;0.00;0.00;0.62;3.07;1.80;;;25.40;28.40;;;;;;2255070;61;20385;-63
2023/01/02 02:34:21;0.00;0.00;0.62;0.00;0.00;0.62;2.47;2.00;;;25.40;28.40;;;;;;2255587;61;20386;-63
2023/01/02 02:37:16;0.00;0.00;0.62;0.00;0.00;0.62;2.47;1.67;;;25.40;28.40;;;;;;2254886;61;20409;-63
2023/01/02 02:40:15;0.00;0.00;0.62;0.00;0.00;0.62;4.43;2.17;;;25.40;28.40;;;;;;2255983;61;20362;-64
2023/01/02 02:43:09;0.00;0.00;0.62;0.00;0.00;0.62;2.60;1.80;;;25.40;28.40;;;;;;2255914;61;20358;-64
2023/01/02 02:46:03;0.00;0.00;0.62;0.00;0.00;0.62;4.60;2.33;;;25.40;28.30;;;;;;2254976;61;20480;-64
2023/01/02 02:49:05;0.00;0.00;0.62;0.00;0.00;0.62;2.90;1.60;;;25.40;28.40;;;;;;2255855;61;20362;-63
2023/01/02 02:51:59;0.00;0.00;0.62;0.00;0.00;0.62;3.00;2.20;;;25.40;28.30;;;;;;2254786;61;20432;-63
2023/01/02 02:54:51;0.00;0.00;0.62;0.00;0.00;0.62;2.43;1.80;;;25.30;28.30;;;;;;2255942;61;20830;-63
2023/01/02 02:57:38;0.00;0.00;0.62;0.00;0.00;0.62;2.10;1.80;;;25.30;28.30;;;;;;2255872;61;20381;-64
2023/01/02 03:00:23;0.00;0.00;0.62;0.00;0.00;0.62;3.50;2.17;;;25.30;28.30;;;;;;2254703;61;20765;-64
2023/01/02 03:03:17;0.00;0.00;0.62;0.00;0.00;0.62;2.73;1.90;;;25.30;28.40;;;;;;2255636;61;20374;-63
2023/01/02 03:06:23;0.00;0.00;0.62;0.00;0.00;0.62;2.70;2.00;;;25.30;28.40;;;;;;2255951;61;20474;-64
2023/01/02 03:09:17;0.00;0.00;0.62;0.00;0.00;0.62;3.57;1.80;;;25.30;28.40;;;;;;2255958;61;20913;-63
2023/01/02 03:12:13;0.00;0.00;0.62;0.00;0.00;0.62;3.17;1.90;;;25.30;28.40;;;;;;2255738;61;20386;-62
2023/01/02 03:15:08;0.00;0.00;0.62;0.00;0.00;0.62;2.90;1.73;;;25.20;28.30;;;;;;2254810;61;20386;-62
2023/01/02 03:18:14;0.00;0.00;0.62;0.00;0.00;0.62;2.30;1.63;;;25.20;28.40;;;;;;2255730;61;20369;-62
2023/01/02 03:21:07;0.00;0.00;0.62;0.00;0.00;0.62;2.60;1.70;;;25.20;28.40;;;;;;2255172;61;20357;-63
2023/01/02 03:23:54;0.00;0.00;0.62;0.00;0.00;0.62;6.80;2.10;;;25.20;28.40;;;;;;2255422;61;20410;-63
2023/01/02 03:26:43;0.00;0.00;0.62;0.00;0.00;0.62;2.77;1.70;;;25.20;28.30;;;;;;2255432;61;20361;-62
2023/01/02 03:29:33;0.00;0.00;0.62;0.00;0.00;0.62;3.30;2.10;;;25.20;28.30;;;;;;2254976;61;20355;-61
2023/01/02 03:32:26;0.00;0.00;0.62;0.00;0.00;0.62;3.70;2.50;;;25.20;28.30;;;;;;2255501;61;20498;-60
2023/01/02 03:35:16;0.00;0.00;0.62;0.00;0.00;0.62;2.60;2.20;;;25.10;28.00;;;;;;2255905;61;20377;-62
2023/01/02 03:38:07;0.00;0.00;0.62;0.00;0.00;0.62;3.87;2.60;;;25.10;28.00;;;;;;2254625;61;20385;-64
2023/01/02 03:41:01;0.00;0.00;0.62;0.00;0.00;0.62;3.10;2.00;;;25.10;28.10;;;;;;2255993;61;20420;-63
2023/01/02 03:43:50;0.00;0.00;0.62;0.00;0.00;0.62;3.43;2.40;;;25.10;28.20;;;;;;2253922;61;20771;-62
2023/01/02 03:46:46;0.00;0.00;0.62;0.00;0.00;0.62;3.23;2.00;;;25.00;28.20;;;;;;2255791;61;20435;-62
2023/01/02 03:49:36;0.00;0.00;0.62;0.00;0.00;0.62;2.43;1.97;;;25.00;28.20;;;;;;2255834;61;20359;-62
2023/01/02 03:52:21;0.00;0.00;0.62;0.00;0.00;0.62;2.60;1.83;;;25.00;28.20;;;;;;2254586;61;20393;-62
2023/01/02 03:55:08;0.00;0.00;0.62;0.00;0.00;0.62;3.57;1.87;;;25.00;28.20;;;;;;2255834;61;20385;-62
2023/01/02 03:58:01;0.00;0.00;0.62;0.00;0.00;0.62;3.77;2.20;;;25.00;28.30;;;;;;2255581;61;20777;-64
2023/01/02 04:00:54;0.00;0.00;0.62;0.00;0.00;0.62;2.63;1.70;;;25.00;28.30;;;;;;2255866;61;20393;-59
2023/01/02 04:03:44;0.00;0.00;0.62;0.00;0.00;0.62;3.27;2.40;;;25.00;28.30;;;;;;2255537;61;20358;-65
2023/01/02 04:06:36;0.00;0.00;0.62;0.00;0.00;0.62;2.90;2.43;;;25.00;28.30;;;;;;2254231;61;20366;-62
2023/01/02 04:09:24;0.00;0.00;0.62;0.00;0.00;0.62;3.33;2.03;;;24.90;28.20;;;;;;2255935;61;20393;-61
2023/01/02 04:12:14;0.00;0.00;0.62;0.00;0.00;0.62;4.53;2.30;;;24.90;28.30;;;;;;2255073;61;20815;-61
2023/01/02 04:15:04;0.00;0.00;0.62;0.00;0.00;0.62;5.20;2.63;;;24.90;28.30;;;;;;2254936;61;20445;-61
2023/01/02 04:17:53;0.00;0.00;0.62;0.00;0.00;0.62;7.10;2.73;;;24.90;28.20;;;;;;2255576;61;20367;-61
2023/01/02 04:20:43;0.00;0.00;0.62;0.00;0.00;0.62;4.97;2.20;;;24.80;28.20;;;;;;2254696;61;20843;-61
2023/01/02 04:23:35;0.00;0.00;0.62;0.00;0.00;0.62;3.17;2.17;;;24.80;28.30;;;;;;2255446;61;20365;-63
2023/01/02 04:26:26;0.00;0.00;0.62;0.00;0.00;0.62;3.70;2.50;;;24.80;28.30;;;;;;2255637;61;20385;-62
2023/01/02 04:28:54;0.00;0.00;0.62;0.00;0.00;0.62;2.63;2.10;;;24.80;28.30;;;;;;2260717;61;20355;-61
2023/01/02 04:31:26;0.00;0.00;0.62;0.00;0.00;0.62;3.93;2.53;;;24.80;28.30;;;;;;2255577;61;20356;-64
2023/01/02 04:33:56;0.00;0.00;0.62;0.00;0.00;0.62;4.97;2.50;;;24.80;28.30;;;;;;2255586;61;20355;-62
2023/01/02 04:36:23;0.00;0.00;0.62;0.00;0.00;0.62;5.90;2.93;;;24.80;28.30;;;;;;2254574;61;20387;-63
2023/01/02 04:38:50;0.00;0.00;0.62;0.00;0.00;0.62;4.17;2.50;;;24.80;28.30;;;;;;2255539;61;20355;-61
2023/01/02 04:41:27;0.00;0.00;0.62;0.00;0.00;0.62;3.30;2.33;;;24.80;28.40;;;;;;2255798;61;20362;-59
2023/01/02 04:43:56;0.00;0.00;0.62;0.00;0.00;0.62;3.53;2.10;;;24.80;28.40;;;;;;2254430;61;20363;-61
2023/01/02 04:46:24;0.00;0.00;0.62;0.00;0.00;0.62;5.60;2.27;;;24.70;28.30;;;;;;2255553;61;20378;-61
2023/01/02 04:48:51;0.00;0.00;0.62;0.00;0.00;0.62;3.20;2.30;;;24.70;28.40;;;;;;2255109;61;20362;-61
2023/01/02 04:51:18;0.00;0.00;0.62;0.00;0.00;0.62;3.00;2.10;;;24.70;28.40;;;;;;2253801;61;20355;-61
2023/01/02 04:53:47;0.00;0.00;0.62;0.00;0.00;0.62;2.93;2.07;;;24.70;28.40;;;;;;2255470;61;20355;-61
2023/01/02 04:56:13;0.00;0.00;0.62;0.00;0.00;0.62;3.20;2.37;;;24.70;28.40;;;;;;2261872;61;20405;-59
2023/01/02 04:58:40;0.00;0.00;0.62;0.00;0.00;0.62;6.10;3.70;;;24.70;28.40;;;;;;2254290;61;20887;-59
2023/01/02 05:01:09;0.00;0.00;0.62;0.00;0.00;0.62;3.60;2.00;;;24.70;28.40;;;;;;2255726;61;20359;-62
2023/01/02 05:03:38;0.00;0.00;0.62;0.00;0.00;0.62;4.17;2.50;;;24.70;28.50;;;;;;2255458;61;20366;-63
2023/01/02 05:06:06;0.00;0.00;0.62;0.00;0.00;0.62;4.37;2.57;;;24.70;28.40;;;;;;2254318;61;20413;-64
2023/01/02 05:08:32;0.00;0.00;0.62;0.00;0.00;0.62;4.23;2.70;;;24.70;28.50;;;;;;2255626;61;20857;-63
2023/01/02 05:11:05;0.00;0.00;0.62;0.00;0.00;0.62;4.73;2.30;;;24.70;28.50;;;;;;2255349;61;20366;-62
2023/01/02 05:13:32;0.00;0.00;0.62;0.00;0.00;0.62;3.70;2.57;;;24.70;28.50;;;;;;2254188;61;20382;-61
2023/01/02 05:15:58;0.00;0.00;0.62;0.00;0.00;0.62;4.10;2.00;;;24.70;28.50;;;;;;2255934;61;20418;-61
2023/01/02 05:18:27;0.00;0.00;0.62;0.00;0.00;0.62;3.70;1.87;;;24.70;28.50;;;;;;2255360;61;20421;-63
2023/01/02 05:20:59;0.00;0.00;0.62;0.00;0.00;0.62;6.20;2.63;;;24.70;28.50;;;;;;2254969;61;20417;-64
2023/01/02 05:26:10;0.00;0.00;0.62;0.00;0.00;0.62;4.47;2.57;;;24.70;28.50;;;;;;2255530;61;20365;-62
2023/01/02 05:28:37;0.00;0.00;0.62;0.00;0.00;0.62;3.03;2.17;;;24.60;28.50;;;;;;2255159;61;20362;-64
2023/01/02 05:31:03;0.00;0.00;0.62;0.00;0.00;0.62;4.30;2.40;;;24.60;28.50;;;;;;2255602;61;20364;-63
2023/01/02 05:33:31;0.00;0.00;0.62;0.00;0.00;0.62;3.97;2.23;;;24.70;28.60;;;;;;2255449;61;20386;-63
2023/01/02 05:35:57;0.00;0.00;0.62;0.00;0.00;0.62;3.40;2.30;;;24.60;28.50;;;;;;2254990;61;20379;-63
2023/01/02 05:38:24;0.00;0.00;0.62;0.00;0.00;0.62;5.83;2.37;;;24.60;28.50;;;;;;2255019;61;20351;-64
2023/01/02 05:40:58;0.00;0.00;0.62;0.00;0.00;0.62;3.40;1.90;;;24.60;28.50;;;;;;2255690;61;20435;-64
2023/01/02 05:43:25;0.00;0.00;0.62;0.00;0.00;0.62;5.50;2.10;;;24.60;28.50;;;;;;2254791;61;20728;-64
2023/01/02 05:45:51;0.00;0.00;0.62;0.00;0.00;0.62;4.30;2.57;;;24.60;28.50;;;;;;2255333;61;20465;-64
2023/01/02 05:48:17;0.00;0.00;0.62;0.00;0.00;0.62;6.40;3.07;;;24.60;28.60;;;;;;2255599;61;20929;-63
2023/01/02 05:50:45;0.00;0.00;0.62;0.00;0.00;0.62;3.93;2.13;;;24.60;28.60;;;;;;2254698;61;20926;-64
2023/01/02 05:53:12;0.00;0.00;0.62;0.00;0.00;0.62;5.30;2.67;;;24.50;28.50;;;;;;2254795;61;20394;-63
2023/01/02 05:55:38;0.00;0.00;0.62;0.00;0.00;0.62;2.87;2.47;;;24.50;28.60;;;;;;2255019;61;20406;-64
2023/01/02 05:58:04;0.00;0.00;0.62;0.00;0.00;0.62;4.70;3.13;;;24.50;28.50;;;;;;2254460;61;20355;-64
2023/01/02 06:00:30;0.00;0.00;0.62;0.00;0.00;0.62;3.13;2.17;;;24.50;28.60;;;;;;2255413;61;20375;-61
2023/01/02 06:02:57;0.00;0.00;0.62;0.00;0.00;0.62;4.83;2.53;;;24.50;28.60;;;;;;2255260;61;20354;-63
2023/01/02 06:05:23;0.00;0.00;0.62;0.00;0.00;0.62;4.30;2.30;;;24.50;28.60;;;;;;2254435;61;20461;-62
2023/01/02 06:07:50;0.00;0.00;0.62;0.00;0.00;0.62;3.63;1.90;;;24.50;28.60;;;;;;2255279;61;20457;-61
2023/01/02 06:10:17;0.00;0.00;0.62;0.00;0.00;0.62;3.30;2.37;;;24.50;28.60;;;;;;2255533;61;20362;-61
2023/01/02 06:12:43;0.00;0.00;0.62;0.00;0.00;0.62;3.47;2.10;;;24.50;28.60;;;;;;2253920;61;20394;-63
2023/01/02 06:15:10;0.00;0.00;0.62;0.00;0.00;0.62;3.20;2.00;;;24.50;28.70;;;;;;2255463;61;20432;-63
2023/01/02 06:17:36;0.00;0.00;0.62;0.00;0.00;0.62;5.03;2.30;;;24.50;28.70;;;;;;2254874;61;20748;-64
2023/01/02 06:20:04;0.00;0.00;0.62;0.00;0.00;0.62;3.63;2.10;;;24.50;28.70;;;;;;2260446;61;20771;-63
2023/01/02 06:22:30;0.00;0.00;0.62;0.00;0.00;0.62;3.50;2.23;;;24.50;28.70;;;;;;2255062;61;20351;-61
2023/01/02 06:24:58;0.00;0.00;0.62;0.00;0.00;0.62;3.90;2.60;;;24.40;28.60;;;;;;2255993;61;20832;-61
2023/01/02 06:27:24;0.00;0.00;0.62;0.00;0.00;0.62;5.40;2.90;;;24.40;28.60;;;;;;2254920;61;20898;-62
2023/01/02 06:29:50;0.00;0.00;0.62;0.00;0.00;0.62;5.03;2.50;;;24.40;28.60;;;;;;2256101;61;20386;-59
2023/01/02 06:32:16;0.00;0.00;0.62;0.00;0.00;0.62;5.10;2.83;;;24.40;28.60;;;;;;2255904;61;20385;-62
2023/01/02 06:34:44;0.00;0.00;0.62;0.00;0.00;0.62;2.63;2.10;;;24.40;28.60;;;;;;2254832;61;20371;-63
2023/01/02 06:37:10;0.00;0.00;0.62;0.00;0.00;0.62;4.10;2.50;;;24.40;28.50;;;;;;2255621;61;20370;-63
2023/01/02 06:39:37;0.00;0.00;0.62;0.00;0.00;0.62;4.40;2.10;;;24.40;28.60;;;;;;2255864;61;20735;-63
2023/01/02 06:42:05;0.00;0.00;0.62;0.00;0.00;0.62;3.20;1.73;;;24.40;28.60;;;;;;2254839;61;20402;-62
2023/01/02 06:44:31;0.00;0.00;0.62;0.00;0.00;0.62;4.60;2.83;;;24.40;28.60;;;;;;2262090;61;20386;-60
2023/01/02 06:46:57;0.00;0.00;0.62;0.00;0.00;0.62;3.17;2.47;;;24.40;28.50;;;;;;2255843;61;20879;-60
2023/01/02 06:49:24;0.00;0.00;0.62;0.00;0.00;0.62;5.17;2.67;;;24.30;28.40;;;;;;2261068;61;20420;-63
2023/01/02 06:51:50;0.00;0.00;0.62;0.00;0.00;0.62;5.93;2.30;;;24.30;28.40;;;;;;2255930;61;20379;-58
2023/01/02 06:54:16;0.00;0.00;0.62;0.00;0.00;0.62;3.33;2.03;;;24.30;28.40;;;;;;2255657;61;20785;-60
2023/01/02 06:56:42;0.00;0.00;0.62;0.00;0.00;0.62;3.60;2.63;;;24.30;28.40;;;;;;2254868;61;20438;-66
2023/01/02 06:59:10;0.00;0.00;0.62;0.00;0.00;0.62;3.43;2.23;;;24.30;28.40;;;;;;2255873;61;20359;-66
2023/01/02 07:01:37;0.00;0.00;0.62;0.00;0.00;0.62;3.40;2.43;;;24.20;28.30;;;;;;2256137;61;20359;-66
2023/01/02 07:04:03;0.00;0.00;0.62;0.00;0.00;0.62;4.90;2.10;;;24.20;28.20;;;;;;2254583;61;20362;-66
2023/01/02 07:06:29;0.00;0.00;0.62;0.00;0.00;0.62;4.40;2.83;;;24.20;28.30;;;;;;2255463;61;20367;-63
2023/01/02 07:08:55;0.00;0.00;0.62;0.00;0.00;0.62;4.37;2.47;;;24.10;28.20;;;;;;2252163;61;20421;-63
2023/01/02 07:11:24;0.00;0.00;0.62;0.00;0.00;0.62;6.57;2.80;;;24.10;28.20;;;;;;2254847;61;20768;-63
2023/01/02 07:13:52;0.00;0.00;0.62;0.00;0.00;0.62;7.70;2.67;;;24.10;28.30;;;;;;2256245;61;20363;-63
2023/01/02 07:16:22;0.00;0.00;0.62;0.00;0.00;0.62;4.70;2.80;;;24.10;28.30;;;;;;2255677;61;20350;-63
2023/01/02 07:18:50;0.00;0.00;0.62;0.00;0.00;0.62;4.30;2.60;;;24.10;28.40;;;;;;2254630;61;20363;-63
2023/01/02 07:21:17;0.00;0.00;0.62;0.00;0.00;0.62;5.37;3.00;;;24.00;28.30;;;;;;2255372;61;20354;-64
2023/01/02 07:23:43;0.00;0.00;0.62;0.00;0.00;0.62;6.83;2.87;;;24.00;28.40;;;;;;2255931;61;20797;-68
2023/01/02 07:26:10;0.00;0.00;0.62;0.00;0.00;0.62;4.37;3.00;;;24.00;28.40;;;;;;2253484;61;20406;-64
2023/01/02 07:28:37;0.00;0.00;0.62;0.00;0.00;0.62;3.60;2.43;;;24.00;29.00;;;;;;2255789;61;20469;-63
2023/01/02 07:31:06;0.00;0.00;0.62;0.00;0.00;0.62;4.73;2.90;;;24.00;28.50;;;;;;2255710;61;20347;-63
2023/01/02 07:33:34;0.00;0.00;0.62;0.00;0.00;0.62;4.93;2.57;;;24.00;28.60;;;;;;2254682;61;20374;-64
2023/01/02 07:36:03;0.00;0.00;0.62;0.00;0.00;0.62;5.43;2.03;;;24.00;28.60;;;;;;2255738;61;20406;-64
2023/01/02 07:38:30;0.00;0.00;0.62;0.00;0.00;0.62;4.30;2.30;;;24.00;28.70;;;;;;2255680;61;20355;-62
2023/01/02 07:40:56;0.00;0.00;0.62;0.00;0.00;0.62;4.30;2.43;;;24.00;28.70;;;;;;2254409;61;20443;-63
2023/01/02 07:43:23;0.00;0.00;0.62;0.00;0.00;0.62;4.07;2.37;;;24.00;28.70;;;;;;2255379;61;20599;-63
2023/01/02 07:45:49;0.00;0.00;0.62;0.00;0.00;0.62;3.83;2.17;;;24.00;28.70;;;;;;2255591;61;20386;-62
2023/01/02 07:48:16;0.00;0.00;0.62;0.00;0.00;0.62;3.80;2.60;;;24.00;28.70;;;;;;2254602;61;20351;-63
2023/01/02 07:50:44;0.00;0.00;0.62;0.00;0.00;0.62;2.90;2.20;;;23.90;28.70;;;;;;2255494;61;20490;-63
2023/01/02 07:53:10;0.00;0.00;0.62;0.00;0.00;0.62;6.90;2.63;;;23.90;28.70;;;;;;2254502;61;20499;-59
2023/01/02 07:55:36;0.00;0.00;0.62;0.00;0.00;0.62;3.87;2.20;;;23.90;28.70;;;;;;2254565;61;20401;-60
2023/01/02 07:58:03;0.00;0.00;0.62;0.00;0.00;0.62;5.63;2.10;;;23.90;28.70;;;;;;2255099;61;20355;-61
2023/01/02 08:00:29;0.00;0.00;0.62;0.00;0.00;0.62;3.00;2.20;;;23.90;28.70;;;;;;2255559;61;20386;-63
2023/01/02 08:02:55;0.00;0.00;0.62;0.00;0.00;0.62;3.93;2.40;;;23.90;28.70;;;;;;2254550;61;20358;-63
2023/01/02 08:05:21;0.00;0.00;0.62;0.00;0.00;0.62;3.23;2.20;;;23.90;28.80;;;;;;2255548;61;20367;-63
2023/01/02 08:07:49;0.00;0.00;0.62;0.00;0.00;0.62;4.07;2.67;;;23.90;28.80;;;;;;2255364;61;20907;-62
2023/01/02 08:10:15;0.00;0.00;0.62;0.00;0.00;0.62;4.13;2.70;;;23.90;28.80;;;;;;2254619;61;20681;-63
2023/01/02 08:12:42;0.00;0.00;0.62;0.00;0.00;0.62;6.13;2.37;;;23.90;28.80;;;;;;2254231;61;20393;-62
2023/01/02 08:15:09;0.00;0.00;0.62;0.00;0.00;0.62;4.20;2.30;;;23.90;28.80;;;;;;2255534;61;20386;-62
2023/01/02 08:17:36;0.00;0.00;0.62;0.00;0.00;0.62;3.43;2.20;;;23.90;28.90;;;;;;2254563;61;20369;-63
2023/01/02 08:20:03;0.00;0.00;0.62;0.00;0.00;0.62;3.27;2.13;;;23.90;28.90;;;;;;2254861;61;20438;-62
2023/01/02 08:22:29;0.00;0.00;0.62;0.00;0.00;0.62;5.00;2.73;;;23.90;28.90;;;;;;2255488;61;20355;-63
2023/01/02 08:24:57;0.00;0.00;0.62;0.00;0.00;0.62;3.30;2.20;;;23.90;28.90;;;;;;2254436;61;20375;-64
2023/01/02 08:27:23;0.00;0.00;0.62;0.00;0.00;0.62;3.23;2.20;;;23.90;29.50;;;;;;2255361;61;20367;-62
2023/01/02 08:29:50;0.00;0.00;0.62;0.00;0.00;0.62;4.40;2.50;;;23.90;28.90;;;;;;2255488;61;20354;-63
2023/01/02 08:32:17;0.00;0.00;0.62;0.00;0.00;0.62;3.70;1.93;;;23.90;28.80;;;;;;2253960;61;20440;-62
2023/01/02 08:34:44;0.00;0.00;0.62;0.00;0.00;0.62;3.97;2.27;;;23.90;28.80;;;;;;2255055;61;20386;-61
2023/01/02 08:37:10;0.00;0.00;0.62;0.00;0.00;0.62;3.73;1.90;;;23.90;28.80;;;;;;2255839;61;20450;-63
2023/01/02 08:39:37;0.00;0.00;0.62;0.00;0.00;0.62;3.10;1.73;;;23.90;28.80;;;;;;2254415;61;20398;-65
2023/01/02 08:42:05;0.00;0.00;0.62;0.00;0.00;0.62;2.93;1.77;;;23.90;28.80;;;;;;2255317;61;20358;-63
2023/01/02 08:44:33;0.00;0.00;0.62;0.00;0.00;0.62;1.97;1.53;;;24.00;28.90;;;;;;2255787;61;20755;-62
2023/01/02 08:47:01;0.00;0.00;0.62;0.00;0.00;0.62;4.27;1.90;;;24.00;28.90;;;;;;2254352;61;20367;-63
2023/01/02 08:49:27;0.00;0.00;0.62;0.00;0.00;0.62;2.57;1.77;;;24.00;28.90;;;;;;2254920;61;20371;-64
2023/01/02 08:51:53;0.00;0.00;0.62;0.00;0.00;0.62;3.20;1.43;;;24.10;28.90;;;;;;2255315;61;20461;-63
2023/01/02 08:54:20;0.00;0.00;0.62;0.00;0.00;0.62;1.97;1.50;;;24.10;28.90;;;;;;2254458;61;20374;-63
2023/01/02 08:56:47;0.00;0.00;0.62;0.00;0.00;0.62;2.40;1.60;;;24.10;28.90;;;;;;2255515;61;20363;-65
2023/01/02 08:59:14;0.00;0.00;0.62;0.00;0.00;0.62;2.60;1.57;;;24.20;29.00;;;;;;2255706;61;20442;-64
2023/01/02 09:01:41;0.00;0.00;0.62;0.00;0.00;0.62;2.33;1.70;;;24.20;29.00;;;;;;2253933;61;20840;-65
2023/01/02 09:04:08;0.00;0.00;0.62;0.00;0.00;0.62;2.00;1.40;;;24.20;28.90;;;;;;2255518;61;20379;-63
2023/01/02 09:06:36;0.00;0.00;0.62;0.00;0.00;0.62;2.37;1.50;;;24.30;29.00;;;;;;2255619;61;20482;-63
2023/01/02 09:09:04;0.00;0.00;0.62;0.00;0.00;0.62;2.60;1.50;;;24.30;29.00;;;;;;2254494;61;21221;-64
2023/01/02 09:11:34;0.00;0.00;0.62;0.00;0.00;0.62;2.27;1.60;;;24.30;29.00;;;;;;2255841;61;20438;-64
2023/01/02 09:14:03;0.00;0.00;0.62;0.00;0.00;0.62;1.97;1.40;;;24.40;29.00;;;;;;2254945;61;20355;-63
2023/01/02 09:16:31;0.00;0.00;0.62;0.00;0.00;0.62;2.13;1.20;;;24.40;29.00;;;;;;2254924;61;20762;-61
2023/01/02 09:19:00;0.00;0.00;0.62;0.00;0.00;0.62;2.27;1.13;;;24.40;29.00;;;;;;2255810;61;20363;-61
2023/01/02 09:21:28;0.00;0.00;0.62;0.00;0.00;0.62;4.83;1.57;;;24.40;29.00;;;;;;2255622;61;20946;-65
2023/01/02 09:23:55;0.00;0.00;0.62;0.00;0.00;0.62;2.30;1.30;;;24.50;29.00;;;;;;2254632;61;20355;-61
2023/01/02 09:26:21;0.00;0.00;0.62;0.00;0.00;0.62;2.10;1.30;;;24.50;29.00;;;;;;2255746;61;20934;-60
2023/01/02 09:28:48;0.00;0.00;0.62;0.00;0.00;0.62;3.57;1.93;;;24.60;29.00;;;;;;2255191;61;20756;-60
2023/01/02 09:31:16;0.00;0.00;0.62;0.00;0.00;0.62;2.70;1.80;;;24.60;29.00;;;;;;2254680;61;20354;-63
2023/01/02 09:33:46;0.00;0.00;0.62;0.00;0.00;0.62;2.40;1.80;;;24.60;29.00;;;;;;2255633;61;20433;-62
2023/01/02 09:36:14;0.00;0.00;0.62;0.00;0.00;0.62;2.90;2.20;;;24.60;29.00;;;;;;2255662;61;20362;-64
2023/01/02 09:38:41;0.00;0.00;0.62;0.00;0.00;0.62;2.57;1.67;;;24.60;29.00;;;;;;2254346;61;20463;-64
2023/01/02 09:41:27;0.00;0.00;0.62;0.00;0.00;0.62;2.60;1.93;;;24.70;29.00;;;;;;2255946;61;21136;-60
2023/01/02 09:43:59;0.00;0.00;0.62;0.00;0.00;0.62;2.13;1.60;;;24.70;29.00;;;;;;2254738;61;20438;-65
2023/01/02 09:46:34;0.00;0.00;0.62;0.00;0.00;0.62;2.00;1.53;;;24.70;29.00;;;;;;2253088;61;20699;-64
2023/01/02 09:49:03;0.00;0.00;0.62;0.00;0.00;0.62;3.30;1.70;;;24.70;28.90;;;;;;2252453;61;20926;-64
2023/01/02 09:51:33;0.00;0.00;0.62;0.00;0.00;0.62;2.57;1.70;;;24.80;29.00;;;;;;2254532;61;20778;-61
2023/01/02 09:54:00;0.00;0.00;0.62;0.00;0.00;0.62;1.87;1.43;;;24.80;29.00;;;;;;2255142;61;20977;-62
2023/01/02 09:56:32;0.00;0.00;0.62;0.00;0.00;0.62;1.90;1.43;;;24.80;29.00;;;;;;2254822;61;21273;-62
2023/01/02 09:59:12;0.00;0.00;0.62;0.00;0.00;0.62;3.10;1.57;;;24.80;28.90;;;;;;2255921;61;20359;-64
2023/01/02 10:01:53;0.00;0.00;0.62;0.00;0.00;0.62;2.70;1.60;;;24.80;28.90;;;;;;2255401;61;20364;-64
2023/01/02 10:04:35;0.00;0.00;0.62;0.00;0.00;0.62;2.23;1.40;;;24.80;28.90;;;;;;2255631;61;20417;-65
2023/01/02 10:07:09;0.00;0.00;0.62;0.00;0.00;0.62;5.47;2.40;;;24.90;29.00;;;;;;2256268;61;20408;-65
2023/01/02 10:09:47;0.00;0.00;0.62;0.00;0.00;0.62;2.80;1.30;;;24.90;29.00;;;;;;2256135;61;20366;-64
2023/01/02 10:12:20;0.00;0.00;0.62;0.00;0.00;0.62;2.07;1.50;;;24.90;28.90;;;;;;2255485;61;20420;-63
2023/01/02 10:14:56;0.00;0.00;0.62;0.00;0.00;0.62;2.23;1.40;;;25.00;29.00;;;;;;2256261;61;20432;-61
2023/01/02 10:17:24;0.00;0.00;0.62;0.00;0.00;0.62;2.27;1.67;;;25.00;29.00;;;;;;2254935;61;20859;-64
2023/01/02 10:19:58;0.00;0.00;0.62;0.00;0.00;0.62;3.67;1.93;;;25.00;28.90;;;;;;2255499;61;20417;-58